Time;durP1;ratioP1;P1;durP2;ratioP2;P2;SDS_P1;SDS_P2;PMS_P1;PMS_P2;Temp;Humidity;BMP_temperature;BMP_pressure;BME280_temperature;BME280_humidity;BME280_pressure;Samples;Min_cycle;Max_cycle;Signal;HPM_P1;HPM_P2
2023/06/02 00:02:29;;;;;;;6.97;2.38;;;13.40;57.70;;;;;;5092904;28;20035;-66
2023/06/02 00:04:59;;;;;;;10.23;3.45;;;13.40;57.60;;;;;;5092500;28;20044;-66
2023/06/02 00:07:25;;;;;;;11.02;2.40;;;13.50;57.40;;;;;;5092167;28;20084;-66
2023/06/02 00:09:51;;;;;;;7.45;2.30;;;13.50;57.30;;;;;;5092175;28;20044;-66
2023/06/02 00:12:17;;;;;;;10.20;3.05;;;13.50;57.40;;;;;;5092336;28;20043;-66
2023/06/02 00:14:43;;;;;;;7.53;2.53;;;13.50;57.40;;;;;;5092473;28;20047;-66
2023/06/02 00:17:10;;;;;;;10.27;2.58;;;13.50;57.20;;;;;;5109836;27;20036;-66
2023/06/02 00:19:37;;;;;;;12.68;3.00;;;13.60;57.00;;;;;;5091810;28;20054;-66
2023/06/02 00:22:06;;;;;;;8.05;2.58;;;13.50;56.50;;;;;;5118746;27;20063;-67
2023/06/02 00:24:32;;;;;;;8.00;2.85;;;13.60;56.70;;;;;;5072104;28;20091;-66
2023/06/02 00:26:58;;;;;;;10.38;2.97;;;13.60;57.00;;;;;;5087144;28;20067;-67
2023/06/02 00:29:24;;;;;;;12.27;3.13;;;13.50;56.70;;;;;;5074865;28;20047;-66
2023/06/02 00:31:50;;;;;;;8.40;2.20;;;13.50;56.80;;;;;;5075500;28;20032;-66
2023/06/02 00:34:16;;;;;;;8.35;2.15;;;13.50;56.90;;;;;;5091345;28;20040;-67
2023/06/02 00:36:41;;;;;;;6.20;2.20;;;13.50;57.00;;;;;;5075145;28;20040;-67
2023/06/02 00:39:07;;;;;;;10.38;2.45;;;13.50;57.10;;;;;;5091756;28;20119;-66
2023/06/02 00:41:33;;;;;;;12.30;2.65;;;13.50;57.20;;;;;;5075297;28;20044;-69
2023/06/02 00:43:59;;;;;;;7.80;2.08;;;13.50;57.10;;;;;;5119580;27;20541;-69
2023/06/02 00:46:25;;;;;;;6.82;1.95;;;13.50;57.20;;;;;;5089083;28;20041;-69
2023/06/02 00:48:51;;;;;;;7.63;2.30;;;13.50;57.20;;;;;;5071784;28;20045;-69
2023/06/02 00:51:18;;;;;;;11.30;2.90;;;13.60;57.20;;;;;;5093629;28;20086;-69
2023/06/02 00:53:44;;;;;;;11.50;2.72;;;13.60;57.20;;;;;;5125447;27;20044;-69
2023/06/02 00:56:15;;;;;;;10.55;2.55;;;13.60;56.50;;;;;;5075063;28;20093;-69
2023/06/02 00:58:45;;;;;;;7.30;2.33;;;13.50;56.60;;;;;;5126413;27;20521;-69
2023/06/02 01:01:18;;;;;;;6.75;2.50;;;13.50;56.70;;;;;;5092967;28;20059;-69
2023/06/02 01:03:45;;;;;;;11.65;2.80;;;13.50;56.80;;;;;;5091957;28;20048;-69
2023/06/02 01:06:12;;;;;;;10.18;2.65;;;13.50;56.70;;;;;;5091870;28;20450;-69
2023/06/02 01:08:40;;;;;;;8.65;2.33;;;13.50;56.50;;;;;;5124329;27;20048;-70
2023/06/02 01:11:07;;;;;;;9.98;2.90;;;13.40;56.70;;;;;;5074897;28;20110;-66
2023/06/02 01:13:34;;;;;;;11.57;2.72;;;13.40;56.50;;;;;;5091649;28;20052;-66
2023/06/02 01:15:59;;;;;;;10.60;2.83;;;13.40;56.50;;;;;;5073904;28;20084;-66
2023/06/02 01:18:29;;;;;;;9.95;2.42;;;13.30;56.50;;;;;;5109597;28;20115;-66
2023/06/02 01:21:01;;;;;;;11.80;2.67;;;13.30;56.60;;;;;;5122231;28;20081;-66
2023/06/02 01:23:36;;;;;;;9.25;2.85;;;13.30;56.60;;;;;;5125562;28;20115;-66
2023/06/02 01:26:05;;;;;;;9.55;2.60;;;13.30;56.90;;;;;;5120603;28;20075;-66
2023/06/02 01:28:31;;;;;;;4.88;2.03;;;13.30;57.00;;;;;;5078081;28;20044;-66
2023/06/02 01:31:11;;;;;;;9.10;2.25;;;13.30;57.10;;;;;;5091850;28;20040;-66
2023/06/02 01:33:43;;;;;;;11.10;2.30;;;13.40;57.20;;;;;;5090835;28;20033;-66
2023/06/02 01:36:09;;;;;;;10.55;2.22;;;13.30;57.20;;;;;;5083040;28;20036;-66
2023/06/02 01:38:38;;;;;;;8.25;1.95;;;13.40;57.30;;;;;;5125465;28;20127;-66
2023/06/02 01:41:06;;;;;;;8.85;2.55;;;13.40;57.30;;;;;;5124933;27;20048;-66
2023/06/02 01:43:34;;;;;;;6.53;2.40;;;13.40;57.10;;;;;;5129195;27;20044;-66
2023/06/02 01:46:01;;;;;;;7.90;2.22;;;13.40;57.50;;;;;;5078110;28;20483;-66
2023/06/02 01:48:30;;;;;;;8.65;1.60;;;13.40;57.30;;;;;;5094866;28;20125;-67
2023/06/02 01:50:56;;;;;;;9.88;1.90;;;13.40;57.40;;;;;;5126957;27;20052;-66
2023/06/02 01:53:26;;;;;;;11.25;2.83;;;13.40;57.50;;;;;;5095151;28;20044;-66
2023/06/02 01:55:52;;;;;;;9.65;1.90;;;13.40;57.50;;;;;;5108877;28;20503;-66
2023/06/02 01:58:18;;;;;;;9.32;2.20;;;13.40;57.60;;;;;;5058426;28;20032;-66
2023/06/02 02:00:44;;;;;;;8.77;2.63;;;13.40;57.60;;;;;;5069123;28;20097;-66
2023/06/02 02:03:12;;;;;;;11.40;3.00;;;13.40;57.60;;;;;;5123499;27;20052;-66
2023/06/02 02:05:37;;;;;;;6.45;2.10;;;13.50;57.50;;;;;;5093327;28;20074;-66
2023/06/02 02:08:04;;;;;;;6.10;1.60;;;13.40;57.30;;;;;;5077918;28;20044;-66
2023/06/02 02:10:30;;;;;;;7.68;2.15;;;13.40;57.40;;;;;;5095176;28;20492;-66
2023/06/02 02:12:56;;;;;;;9.18;1.98;;;13.40;57.50;;;;;;5077966;28;20437;-66
2023/06/02 02:15:22;;;;;;;10.40;2.60;;;13.40;57.50;;;;;;5094466;28;20098;-66
2023/06/02 02:17:49;;;;;;;9.93;2.90;;;13.40;57.80;;;;;;5128047;27;20032;-66
2023/06/02 02:20:18;;;;;;;7.78;2.00;;;13.40;57.50;;;;;;5096092;28;20036;-66
2023/06/02 02:22:45;;;;;;;9.93;1.95;;;13.40;57.50;;;;;;5129050;27;20118;-66
2023/06/02 02:25:11;;;;;;;7.13;1.83;;;13.40;57.60;;;;;;5077747;28;20047;-66
2023/06/02 02:27:38;;;;;;;7.85;1.83;;;13.50;57.60;;;;;;5094334;28;20390;-66
2023/06/02 02:30:06;;;;;;;7.35;2.15;;;13.40;57.60;;;;;;5078144;28;20439;-66
2023/06/02 02:32:34;;;;;;;6.72;1.67;;;13.40;57.60;;;;;;5110900;27;20044;-66
2023/06/02 02:35:00;;;;;;;6.82;2.17;;;13.40;57.60;;;;;;5089396;28;20039;-66
2023/06/02 02:37:27;;;;;;;7.93;2.08;;;13.40;57.70;;;;;;5094414;28;20104;-66
2023/06/02 02:39:53;;;;;;;7.82;2.03;;;13.40;57.70;;;;;;5094330;28;20047;-66
2023/06/02 02:42:19;;;;;;;8.20;1.80;;;13.40;57.70;;;;;;5094262;28;20040;-66
2023/06/02 02:44:45;;;;;;;7.93;2.00;;;13.50;57.80;;;;;;5115192;27;20048;-66
2023/06/02 02:47:11;;;;;;;5.85;2.08;;;13.50;57.80;;;;;;5090999;28;20047;-66
2023/06/02 02:49:36;;;;;;;7.25;1.95;;;13.40;57.80;;;;;;5077190;28;20046;-66
2023/06/02 02:52:02;;;;;;;8.60;2.20;;;13.50;57.90;;;;;;5126473;27;20094;-66
2023/06/02 02:54:28;;;;;;;7.90;2.17;;;13.40;57.90;;;;;;5094661;28;20036;-66
2023/06/02 02:56:54;;;;;;;10.23;2.25;;;13.40;58.00;;;;;;5093840;28;20054;-66
2023/06/02 02:59:20;;;;;;;10.60;2.60;;;13.40;58.00;;;;;;5073726;28;20052;-66
2023/06/02 03:01:46;;;;;;;7.57;1.90;;;13.40;58.10;;;;;;5109155;28;20048;-66
2023/06/02 03:04:18;;;;;;;10.52;2.10;;;13.40;58.10;;;;;;5093569;28;20399;-66
2023/06/02 03:06:45;;;;;;;10.43;2.85;;;13.40;58.10;;;;;;5076891;28;20047;-66
2023/06/02 03:09:12;;;;;;;7.47;1.90;;;13.40;58.20;;;;;;5127635;27;20044;-66
2023/06/02 03:11:37;;;;;;;7.68;2.13;;;13.40;58.20;;;;;;5077283;28;20040;-66
2023/06/02 03:14:03;;;;;;;7.10;2.10;;;13.40;58.20;;;;;;5093556;28;20051;-66
2023/06/02 03:16:29;;;;;;;6.82;2.10;;;13.40;58.20;;;;;;5127842;27;20040;-66
2023/06/02 03:18:56;;;;;;;6.50;1.90;;;13.40;58.20;;;;;;5127860;27;20184;-66
2023/06/02 03:21:22;;;;;;;9.85;2.45;;;13.40;58.20;;;;;;5117647;27;20457;-66
2023/06/02 03:23:52;;;;;;;10.32;2.85;;;13.40;58.30;;;;;;5091503;28;20070;-66
2023/06/02 03:26:17;;;;;;;10.13;2.10;;;13.40;58.30;;;;;;5093181;28;20126;-66
2023/06/02 03:28:43;;;;;;;9.65;2.20;;;13.40;58.40;;;;;;5076499;28;20177;-66
2023/06/02 03:31:09;;;;;;;8.88;2.85;;;13.40;58.50;;;;;;5093468;28;20048;-66
2023/06/02 03:33:35;;;;;;;11.20;2.28;;;13.40;58.40;;;;;;5093082;28;20043;-66
2023/06/02 03:36:01;;;;;;;11.25;2.45;;;13.40;58.40;;;;;;5060046;28;20048;-66
2023/06/02 03:38:27;;;;;;;9.02;2.47;;;13.40;58.50;;;;;;5126054;27;20048;-66
2023/06/02 03:40:53;;;;;;;10.50;2.63;;;13.40;58.60;;;;;;5109196;27;20044;-66
2023/06/02 03:43:18;;;;;;;7.70;2.08;;;13.40;58.60;;;;;;5091038;28;20152;-66
2023/06/02 03:45:45;;;;;;;8.82;2.22;;;13.40;58.70;;;;;;5127264;27;20047;-66
2023/06/02 03:48:11;;;;;;;7.53;2.53;;;13.40;58.70;;;;;;5127431;27;20066;-66
2023/06/02 03:50:38;;;;;;;10.65;2.78;;;13.40;58.80;;;;;;5126829;27;20492;-66
2023/06/02 03:53:05;;;;;;;10.70;2.45;;;13.40;58.90;;;;;;5107588;27;20056;-66
2023/06/02 03:55:31;;;;;;;7.65;2.28;;;13.40;59.00;;;;;;5091521;28;20035;-66
2023/06/02 03:57:57;;;;;;;10.45;1.83;;;13.40;58.90;;;;;;5092629;28;20078;-66
2023/06/02 04:00:22;;;;;;;10.85;2.85;;;13.40;58.90;;;;;;5126977;27;20448;-66
2023/06/02 04:02:48;;;;;;;7.57;1.90;;;13.40;59.00;;;;;;5109445;28;20073;-66
2023/06/02 04:05:14;;;;;;;5.90;2.10;;;13.40;59.00;;;;;;5075437;28;20036;-66
2023/06/02 04:07:41;;;;;;;8.48;2.28;;;13.40;59.00;;;;;;5109384;28;20101;-66
2023/06/02 04:10:07;;;;;;;8.27;2.40;;;13.40;59.10;;;;;;5075792;28;20036;-66
2023/06/02 04:12:32;;;;;;;9.07;2.25;;;13.40;59.20;;;;;;5092156;28;20462;-66
2023/06/02 04:15:00;;;;;;;7.88;2.63;;;13.40;59.20;;;;;;5075561;28;20071;-66
2023/06/02 04:17:26;;;;;;;5.70;1.75;;;13.40;59.30;;;;;;5075306;28;20051;-66
2023/06/02 04:19:55;;;;;;;9.43;2.08;;;13.40;59.30;;;;;;5092672;28;20035;-66
2023/06/02 04:22:21;;;;;;;9.98;2.70;;;13.40;59.40;;;;;;5092388;28;20044;-66
2023/06/02 04:24:47;;;;;;;9.90;2.17;;;13.40;59.50;;;;;;5092164;28;20055;-66
2023/06/02 04:27:16;;;;;;;6.47;2.25;;;13.40;59.50;;;;;;5113673;27;20044;-66
2023/06/02 04:29:42;;;;;;;9.20;2.67;;;13.40;59.60;;;;;;5092224;28;20415;-66
2023/06/02 04:32:08;;;;;;;10.82;2.53;;;13.40;59.70;;;;;;5092059;28;20044;-66
2023/06/02 04:34:35;;;;;;;9.48;2.45;;;13.40;59.70;;;;;;5074767;28;20075;-66
2023/06/02 04:37:01;;;;;;;8.90;2.38;;;13.40;59.80;;;;;;5092138;28;20036;-66
2023/06/02 04:39:26;;;;;;;9.48;2.25;;;13.40;59.90;;;;;;5075048;28;20035;-66
2023/06/02 04:41:56;;;;;;;7.03;2.25;;;13.40;59.90;;;;;;5126024;27;20043;-66
2023/06/02 04:44:22;;;;;;;7.63;1.75;;;13.40;59.90;;;;;;5112552;27;20044;-66
2023/06/02 04:46:48;;;;;;;9.50;2.70;;;13.40;59.90;;;;;;5071817;28;20051;-66
2023/06/02 04:49:14;;;;;;;8.48;2.35;;;13.40;60.00;;;;;;5082139;28;20051;-66
2023/06/02 04:51:39;;;;;;;6.97;1.80;;;13.40;60.20;;;;;;5091686;28;20117;-66
2023/06/02 04:54:06;;;;;;;7.90;2.33;;;13.40;60.20;;;;;;5074584;28;20032;-66
2023/06/02 04:56:32;;;;;;;7.00;1.92;;;13.40;60.30;;;;;;5092103;28;20059;-66
2023/06/02 04:58:58;;;;;;;8.85;2.20;;;13.50;60.30;;;;;;5091877;28;20040;-66
2023/06/02 05:01:23;;;;;;;8.27;2.22;;;13.50;60.40;;;;;;5091572;28;20040;-66
2023/06/02 05:03:49;;;;;;;11.25;2.60;;;13.50;60.40;;;;;;5091214;28;20036;-66
2023/06/02 05:06:15;;;;;;;11.95;3.22;;;13.50;60.50;;;;;;5108733;28;20048;-66
2023/06/02 05:08:40;;;;;;;9.82;1.95;;;13.50;60.50;;;;;;5122370;27;20039;-66
2023/06/02 05:11:06;;;;;;;9.43;2.63;;;13.50;60.50;;;;;;5075129;28;20044;-66
2023/06/02 05:13:32;;;;;;;11.45;2.28;;;13.50;60.60;;;;;;5091941;28;20472;-66
2023/06/02 05:15:58;;;;;;;8.70;2.50;;;13.50;60.60;;;;;;5090387;28;20456;-66
2023/06/02 05:18:23;;;;;;;12.82;3.40;;;13.50;60.60;;;;;;5091593;28;20052;-66
2023/06/02 05:20:51;;;;;;;10.38;2.80;;;13.60;60.60;;;;;;5091614;28;20074;-69
2023/06/02 05:23:17;;;;;;;7.93;2.22;;;13.60;60.60;;;;;;5091331;28;20040;-69
2023/06/02 05:25:42;;;;;;;7.30;2.00;;;13.60;60.70;;;;;;5074337;28;20107;-69
2023/06/02 05:28:08;;;;;;;10.88;2.25;;;13.60;60.80;;;;;;5092798;28;20131;-69
2023/06/02 05:30:35;;;;;;;8.45;2.10;;;13.60;61.00;;;;;;5091742;28;20043;-69
2023/06/02 05:33:01;;;;;;;7.03;1.77;;;13.60;61.10;;;;;;5091507;28;20411;-69
2023/06/02 05:35:26;;;;;;;8.57;2.65;;;13.60;61.10;;;;;;5091174;28;20032;-69
2023/06/02 05:37:52;;;;;;;8.35;2.22;;;13.70;61.20;;;;;;5091429;28;20487;-69
2023/06/02 05:40:18;;;;;;;8.85;2.30;;;13.70;61.20;;;;;;5091022;28;20035;-69
2023/06/02 05:42:43;;;;;;;13.05;2.88;;;13.70;61.10;;;;;;5125635;28;20070;-69
2023/06/02 05:45:10;;;;;;;8.75;2.90;;;13.70;61.30;;;;;;5124989;28;20032;-69
2023/06/02 05:47:36;;;;;;;10.60;3.20;;;13.70;61.40;;;;;;5109760;28;20044;-69
2023/06/02 05:50:02;;;;;;;9.15;2.78;;;13.70;61.50;;;;;;5091153;28;20043;-70
2023/06/02 05:52:27;;;;;;;9.00;2.13;;;13.80;61.70;;;;;;5074245;28;20491;-70
2023/06/02 05:54:53;;;;;;;12.27;3.05;;;13.70;61.80;;;;;;5074283;28;20406;-69
2023/06/02 05:57:19;;;;;;;13.63;3.05;;;13.70;61.90;;;;;;5089318;28;20040;-69
2023/06/02 05:59:45;;;;;;;8.82;2.78;;;13.70;62.10;;;;;;5057300;28;20047;-69
2023/06/02 06:02:11;;;;;;;9.48;2.35;;;13.80;62.00;;;;;;5113136;28;20399;-69
2023/06/02 06:04:37;;;;;;;11.95;2.42;;;13.80;62.10;;;;;;5090909;28;20048;-69
2023/06/02 06:07:03;;;;;;;11.07;2.47;;;13.80;62.10;;;;;;5091193;28;20117;-70
2023/06/02 06:09:29;;;;;;;13.05;3.20;;;13.80;62.10;;;;;;5090547;28;20047;-70
2023/06/02 06:11:55;;;;;;;8.05;2.70;;;13.80;62.40;;;;;;5091436;28;20393;-70
2023/06/02 06:14:21;;;;;;;10.23;2.95;;;13.80;62.40;;;;;;5090086;28;20039;-69
2023/06/02 06:16:47;;;;;;;7.80;2.10;;;13.90;62.70;;;;;;5108049;28;20040;-67
2023/06/02 06:19:12;;;;;;;14.30;3.38;;;13.90;62.70;;;;;;5090406;28;20078;-67
2023/06/02 06:21:39;;;;;;;9.48;2.50;;;13.90;62.70;;;;;;5091785;28;20563;-68
2023/06/02 06:24:08;;;;;;;10.98;2.67;;;13.90;62.60;;;;;;5090928;28;20140;-69
2023/06/02 06:26:34;;;;;;;9.85;3.03;;;13.90;63.00;;;;;;5090937;28;20036;-69
2023/06/02 06:29:00;;;;;;;9.30;2.58;;;14.00;63.10;;;;;;5095729;28;20046;-69
2023/06/02 06:31:25;;;;;;;12.68;2.55;;;14.00;63.00;;;;;;5094382;28;20040;-69
2023/06/02 06:33:52;;;;;;;7.95;2.47;;;14.00;63.10;;;;;;5060682;28;20036;-69
2023/06/02 06:36:18;;;;;;;12.25;2.42;;;14.10;63.30;;;;;;5113664;27;20079;-69
2023/06/02 06:38:43;;;;;;;11.57;2.38;;;14.10;63.20;;;;;;5091406;28;20069;-69
2023/06/02 06:41:09;;;;;;;8.68;2.30;;;14.20;63.40;;;;;;5127908;27;20043;-69
2023/06/02 06:43:35;;;;;;;11.98;2.60;;;14.20;63.50;;;;;;5128780;27;20131;-69
2023/06/02 06:46:01;;;;;;;11.75;3.05;;;14.20;63.40;;;;;;5094329;28;20479;-69
2023/06/02 06:48:27;;;;;;;10.38;2.47;;;14.30;63.60;;;;;;5094211;28;20040;-69
2023/06/02 06:50:53;;;;;;;11.60;3.08;;;14.30;63.50;;;;;;5093557;28;20056;-68
2023/06/02 06:53:19;;;;;;;14.80;3.70;;;14.40;63.50;;;;;;5094139;28;20093;-68
2023/06/02 06:55:45;;;;;;;12.07;2.60;;;14.40;63.50;;;;;;5095507;28;20036;-68
2023/06/02 06:58:11;;;;;;;10.65;2.72;;;14.40;63.50;;;;;;5094168;28;20123;-68
2023/06/02 07:00:38;;;;;;;13.38;2.80;;;14.50;63.60;;;;;;5093444;28;20135;-69
2023/06/02 07:03:04;;;;;;;14.30;3.47;;;14.50;63.50;;;;;;5127601;27;20040;-69
2023/06/02 07:05:29;;;;;;;8.32;3.03;;;14.60;64.20;;;;;;5124591;27;20150;-69
2023/06/02 07:07:55;;;;;;;12.93;3.22;;;14.60;63.80;;;;;;5127587;27;20040;-69
2023/06/02 07:10:21;;;;;;;10.57;2.97;;;14.70;63.80;;;;;;5077187;28;20505;-68
2023/06/02 07:12:47;;;;;;;13.88;3.42;;;14.70;63.70;;;;;;5093829;28;20078;-69
2023/06/02 07:15:13;;;;;;;16.98;3.88;;;14.70;63.70;;;;;;5093921;28;20075;-69
2023/06/02 07:17:42;;;;;;;14.68;3.35;;;14.80;64.00;;;;;;5076544;28;20399;-69
2023/06/02 07:20:12;;;;;;;10.35;3.00;;;14.80;63.90;;;;;;5092889;28;20042;-69
2023/06/02 07:22:38;;;;;;;12.10;3.45;;;14.80;64.10;;;;;;5119094;27;20044;-69
2023/06/02 07:25:05;;;;;;;11.40;3.30;;;14.80;64.10;;;;;;5076725;28;20085;-68
2023/06/02 07:27:32;;;;;;;14.40;2.90;;;14.90;64.10;;;;;;5122443;27;20118;-68
2023/06/02 07:29:58;;;;;;;17.52;4.40;;;14.90;64.20;;;;;;5093221;28;20043;-68
2023/06/02 07:32:24;;;;;;;15.70;3.53;;;15.00;64.40;;;;;;5093405;28;20048;-68
2023/06/02 07:34:50;;;;;;;14.75;3.97;;;15.00;64.30;;;;;;5120462;27;20044;-69
2023/06/02 07:37:16;;;;;;;11.52;3.70;;;15.00;64.20;;;;;;5116338;27;20040;-68
2023/06/02 07:39:42;;;;;;;18.50;4.65;;;15.10;64.20;;;;;;5117135;27;20527;-68
2023/06/02 07:42:08;;;;;;;14.75;4.13;;;15.10;64.20;;;;;;5090613;28;20044;-68
2023/06/02 07:44:33;;;;;;;11.05;3.35;;;15.20;64.20;;;;;;5127172;27;20516;-68
2023/06/02 07:46:59;;;;;;;15.02;3.85;;;15.20;64.00;;;;;;5127396;27;20048;-68
2023/06/02 07:49:25;;;;;;;18.92;5.45;;;15.30;64.10;;;;;;5120959;27;20040;-68
2023/06/02 07:51:51;;;;;;;17.65;3.75;;;15.30;64.00;;;;;;5090615;28;20080;-68
2023/06/02 07:54:17;;;;;;;20.38;4.65;;;15.30;64.30;;;;;;5089424;28;20048;-68
2023/06/02 07:56:42;;;;;;;15.80;4.38;;;15.30;64.40;;;;;;5076289;28;20429;-68
2023/06/02 07:59:11;;;;;;;17.02;4.38;;;15.30;64.40;;;;;;5114840;27;20032;-69
2023/06/02 08:01:40;;;;;;;12.60;3.47;;;15.30;64.60;;;;;;5117076;27;20075;-69
2023/06/02 08:04:06;;;;;;;13.43;3.83;;;15.30;64.80;;;;;;5102553;27;20089;-70
2023/06/02 08:06:32;;;;;;;16.05;3.95;;;15.30;65.10;;;;;;5092707;28;20048;-70
2023/06/02 08:08:57;;;;;;;11.38;3.53;;;15.30;65.20;;;;;;5092427;28;20399;-70
2023/06/02 08:11:24;;;;;;;19.23;4.65;;;15.40;65.00;;;;;;5092171;28;20052;-70
2023/06/02 08:13:49;;;;;;;17.90;4.45;;;15.50;65.30;;;;;;5126851;27;20510;-70
2023/06/02 08:16:15;;;;;;;15.13;3.45;;;15.50;65.60;;;;;;5113768;27;20045;-70
2023/06/02 08:18:41;;;;;;;15.43;3.72;;;15.50;65.30;;;;;;5098231;28;20376;-70
2023/06/02 08:21:06;;;;;;;20.05;5.30;;;15.60;65.10;;;;;;5091918;28;20101;-69
2023/06/02 08:23:32;;;;;;;19.38;4.97;;;15.70;65.80;;;;;;5091911;28;20097;-69
2023/06/02 08:26:00;;;;;;;18.50;5.80;;;15.80;66.00;;;;;;5091931;28;20035;-69
2023/06/02 08:28:29;;;;;;;13.38;4.95;;;16.00;65.60;;;;;;5092181;28;20526;-69
2023/06/02 08:30:58;;;;;;;17.17;4.95;;;16.20;64.40;;;;;;5091998;28;20036;-69
2023/06/02 08:33:24;;;;;;;19.42;4.68;;;16.30;63.70;;;;;;5115404;27;20036;-69
2023/06/02 08:35:51;;;;;;;11.95;3.78;;;16.40;63.40;;;;;;5087510;28;20071;-69
2023/06/02 08:38:18;;;;;;;14.32;4.30;;;16.50;63.10;;;;;;5091731;28;20040;-69
2023/06/02 08:40:46;;;;;;;15.30;4.20;;;16.60;62.90;;;;;;5092250;28;20364;-69
2023/06/02 08:43:13;;;;;;;19.35;4.60;;;16.70;63.10;;;;;;5091663;28;20042;-69
2023/06/02 08:45:41;;;;;;;14.55;4.50;;;16.90;63.90;;;;;;5091548;28;20032;-69
2023/06/02 08:48:12;;;;;;;16.63;4.35;;;17.10;63.10;;;;;;5091817;28;20122;-69
2023/06/02 08:50:46;;;;;;;14.23;4.63;;;17.30;61.80;;;;;;5071733;28;20048;-69
2023/06/02 08:53:14;;;;;;;17.60;4.40;;;17.50;62.10;;;;;;5117946;27;20032;-69
2023/06/02 08:55:41;;;;;;;14.15;3.78;;;17.80;62.00;;;;;;5124109;27;20039;-69
2023/06/02 08:58:10;;;;;;;14.77;4.60;;;18.10;61.10;;;;;;5092980;28;20109;-69
2023/06/02 09:00:40;;;;;;;12.63;4.00;;;18.30;59.80;;;;;;5074737;28;20468;-69
2023/06/02 09:03:06;;;;;;;13.88;3.50;;;18.50;59.10;;;;;;5109954;27;20076;-69
2023/06/02 09:05:33;;;;;;;14.88;3.60;;;18.60;58.80;;;;;;5090575;28;20040;-69
2023/06/02 09:08:14;;;;;;;12.95;3.58;;;18.70;58.20;;;;;;5092567;28;20036;-69
2023/06/02 09:10:41;;;;;;;13.00;3.50;;;18.90;57.60;;;;;;5084400;28;20043;-70
2023/06/02 09:13:27;;;;;;;13.15;4.00;;;19.10;58.40;;;;;;5109214;27;20123;-69
2023/06/02 09:16:01;;;;;;;12.40;3.88;;;19.20;57.60;;;;;;5071685;28;20178;-69
2023/06/02 09:18:27;;;;;;;12.35;3.03;;;19.30;57.40;;;;;;5071750;28;20079;-69
2023/06/02 09:20:54;;;;;;;11.10;3.53;;;19.50;57.30;;;;;;5084083;28;20469;-69
2023/06/02 09:23:20;;;;;;;10.70;3.03;;;19.60;56.80;;;;;;5074814;28;20097;-69
2023/06/02 09:25:46;;;;;;;12.82;3.78;;;19.70;56.00;;;;;;5087396;28;20055;-69
2023/06/02 09:28:12;;;;;;;13.10;4.03;;;19.80;56.90;;;;;;5087017;28;20068;-69
2023/06/02 09:30:38;;;;;;;13.25;3.75;;;20.00;56.40;;;;;;5084268;28;20076;-69
2023/06/02 09:33:11;;;;;;;13.00;3.65;;;20.10;56.00;;;;;;5112351;27;20033;-69
2023/06/02 09:35:40;;;;;;;13.18;3.65;;;20.30;55.70;;;;;;5095655;28;20071;-69
2023/06/02 09:38:10;;;;;;;10.05;2.95;;;20.40;54.40;;;;;;5069491;28;20040;-70
2023/06/02 09:40:37;;;;;;;9.98;3.22;;;20.60;53.20;;;;;;5086262;28;20044;-69
2023/06/02 09:43:04;;;;;;;8.43;2.75;;;20.70;52.90;;;;;;5083276;28;20051;-69
2023/06/02 09:45:31;;;;;;;12.32;2.83;;;20.80;52.60;;;;;;5108407;28;20036;-69
2023/06/02 09:47:57;;;;;;;7.43;2.35;;;20.80;52.30;;;;;;5084036;28;20503;-69
2023/06/02 09:50:34;;;;;;;8.70;2.58;;;20.90;51.70;;;;;;5086911;28;20048;-69
2023/06/02 09:53:11;;;;;;;8.07;2.42;;;21.00;50.70;;;;;;5084496;28;20674;-69
2023/06/02 09:55:38;;;;;;;9.13;2.75;;;21.00;49.90;;;;;;5084638;28;20126;-69
2023/06/02 09:58:05;;;;;;;9.90;2.55;;;21.00;50.00;;;;;;5086458;28;20042;-69
2023/06/02 10:00:32;;;;;;;10.10;2.28;;;21.00;50.80;;;;;;5085226;28;20043;-69
2023/06/02 10:02:58;;;;;;;9.02;2.60;;;21.00;51.10;;;;;;5088532;28;20040;-69
2023/06/02 10:05:24;;;;;;;11.35;2.75;;;21.20;50.90;;;;;;5117449;27;20039;-69
2023/06/02 10:08:21;;;;;;;8.60;2.47;;;21.30;50.30;;;;;;5094538;28;20124;-69
2023/06/02 10:10:58;;;;;;;5.88;2.80;;;21.40;48.80;;;;;;5121826;27;20047;-69
2023/06/02 10:13:56;;;;;;;8.27;2.20;;;21.40;48.10;;;;;;5084866;28;20552;-68
2023/06/02 10:16:39;;;;;;;7.45;2.30;;;21.50;47.90;;;;;;5075000;28;20583;-69
2023/06/02 10:19:33;;;;;;;8.90;2.45;;;21.50;48.00;;;;;;5094713;28;20044;-69
2023/06/02 10:22:27;;;;;;;7.03;2.20;;;21.50;47.90;;;;;;5094463;28;20043;-69
2023/06/02 10:25:10;;;;;;;6.35;2.35;;;21.40;47.30;;;;;;5094845;28;20043;-69
2023/06/02 10:27:39;;;;;;;8.40;2.28;;;21.40;47.40;;;;;;5094541;28;20043;-69
2023/06/02 10:30:05;;;;;;;7.20;2.13;;;21.40;47.40;;;;;;5093836;28;20070;-69
2023/06/02 10:32:47;;;;;;;7.13;1.60;;;21.30;46.40;;;;;;5094082;28;20043;-70
2023/06/02 10:35:13;;;;;;;5.55;1.70;;;21.30;47.30;;;;;;5094009;28;20036;-69
2023/06/02 10:37:40;;;;;;;5.55;1.70;;;21.50;47.50;;;;;;5094713;28;20044;-69
2023/06/02 10:40:08;;;;;;;6.72;2.05;;;21.60;46.20;;;;;;5057797;28;20112;-69
2023/06/02 10:42:34;;;;;;;5.25;1.60;;;21.60;45.70;;;;;;5109159;28;20045;-69
2023/06/02 10:45:18;;;;;;;4.45;1.33;;;21.70;44.90;;;;;;5093733;28;20036;-69
2023/06/02 10:47:45;;;;;;;4.55;1.80;;;21.70;44.80;;;;;;5094452;28;20044;-68
2023/06/02 10:50:14;;;;;;;7.28;2.13;;;21.80;44.40;;;;;;5077334;28;20055;-69
2023/06/02 10:52:59;;;;;;;4.55;1.13;;;21.90;44.10;;;;;;5093958;28;20419;-70
2023/06/02 10:55:32;;;;;;;3.45;1.10;;;22.00;41.70;;;;;;5095061;28;20082;-69
2023/06/02 10:58:02;;;;;;;4.10;1.10;;;22.00;42.40;;;;;;5127352;27;20123;-69
2023/06/02 11:00:35;;;;;;;5.32;1.30;;;22.10;42.50;;;;;;5078774;28;20047;-69
2023/06/02 11:03:21;;;;;;;4.53;1.13;;;22.20;42.20;;;;;;5094173;28;20036;-69
2023/06/02 11:05:49;;;;;;;4.68;1.85;;;22.20;42.40;;;;;;5114310;27;20560;-69
2023/06/02 11:08:18;;;;;;;5.03;1.15;;;22.20;41.70;;;;;;5093744;28;20040;-69
2023/06/02 11:10:48;;;;;;;3.78;1.27;;;22.30;41.10;;;;;;5127946;27;20048;-69
2023/06/02 11:13:15;;;;;;;4.82;1.25;;;22.40;42.40;;;;;;5126810;27;20040;-69
2023/06/02 11:15:53;;;;;;;2.35;0.93;;;22.50;41.90;;;;;;5093790;28;20119;-69
2023/06/02 11:18:40;;;;;;;4.43;1.58;;;22.60;41.90;;;;;;5073536;28;20056;-69
2023/06/02 11:21:31;;;;;;;3.28;1.30;;;22.70;42.30;;;;;;5107257;28;20078;-69
2023/06/02 11:23:57;;;;;;;6.30;1.55;;;22.80;41.90;;;;;;5109645;27;20059;-69
2023/06/02 11:26:23;;;;;;;3.97;1.48;;;22.90;40.60;;;;;;5118844;27;20036;-69
2023/06/02 11:28:49;;;;;;;3.78;1.00;;;23.00;40.20;;;;;;5082106;28;20052;-70
2023/06/02 11:31:19;;;;;;;6.10;1.27;;;23.10;40.10;;;;;;5080000;28;20077;-69
2023/06/02 11:33:51;;;;;;;3.40;1.58;;;23.00;39.90;;;;;;5083233;28;20044;-69
2023/06/02 11:36:27;;;;;;;4.45;1.20;;;23.10;39.30;;;;;;5115860;27;20069;-69
2023/06/02 11:39:07;;;;;;;4.70;1.70;;;23.00;38.70;;;;;;5069052;28;20048;-69
2023/06/02 11:41:33;;;;;;;4.32;1.23;;;23.00;40.00;;;;;;5082793;28;20067;-69
2023/06/02 11:44:04;;;;;;;4.55;1.35;;;23.00;40.60;;;;;;5115089;27;20463;-70
2023/06/02 11:46:30;;;;;;;5.22;1.95;;;23.00;39.90;;;;;;5084207;28;20364;-69
2023/06/02 11:48:56;;;;;;;3.28;1.50;;;23.00;39.60;;;;;;5116475;27;20097;-69
2023/06/02 11:51:22;;;;;;;4.97;1.60;;;23.10;40.10;;;;;;5084163;28;20074;-69
2023/06/02 11:53:58;;;;;;;5.13;1.88;;;23.00;40.00;;;;;;5114974;27;20047;-69
2023/06/02 11:56:25;;;;;;;4.63;1.48;;;23.10;38.60;;;;;;5088554;28;20044;-69
2023/06/02 11:58:52;;;;;;;4.50;1.70;;;23.10;39.30;;;;;;5092438;28;20075;-69
2023/06/02 12:01:18;;;;;;;4.63;1.40;;;23.10;38.60;;;;;;5114655;27;20037;-69
2023/06/02 12:04:04;;;;;;;5.10;1.52;;;23.10;38.40;;;;;;5096938;28;20059;-69
2023/06/02 12:06:46;;;;;;;2.22;1.00;;;23.20;38.30;;;;;;5083669;28;20039;-69
2023/06/02 12:09:13;;;;;;;5.15;1.52;;;23.20;37.30;;;;;;5091980;28;20047;-69
2023/06/02 12:11:39;;;;;;;3.47;1.35;;;23.20;37.60;;;;;;5092219;28;20039;-69
2023/06/02 12:14:09;;;;;;;3.85;1.20;;;23.20;37.40;;;;;;5075609;28;20036;-69
2023/06/02 12:16:38;;;;;;;3.70;1.20;;;23.30;38.10;;;;;;5088528;28;20119;-69
2023/06/02 12:19:22;;;;;;;5.72;1.35;;;23.40;37.80;;;;;;5092453;28;20051;-69
2023/06/02 12:21:52;;;;;;;5.68;1.23;;;23.40;37.70;;;;;;5116712;27;20048;-69
2023/06/02 12:24:47;;;;;;;4.70;1.17;;;23.40;37.30;;;;;;5071747;28;20396;-70
2023/06/02 12:27:21;;;;;;;5.90;1.50;;;23.40;36.50;;;;;;5063204;28;20075;-69
2023/06/02 12:29:46;;;;;;;4.85;1.77;;;23.40;36.50;;;;;;5072038;28;20044;-69
2023/06/02 12:32:15;;;;;;;3.78;1.10;;;23.40;36.50;;;;;;5061984;28;20043;-69
2023/06/02 12:34:42;;;;;;;4.72;1.55;;;23.40;36.50;;;;;;5115681;27;20048;-69
2023/06/02 12:37:07;;;;;;;4.85;1.20;;;23.50;35.70;;;;;;5071918;28;20041;-69
2023/06/02 12:39:34;;;;;;;3.10;1.08;;;23.50;35.50;;;;;;5071840;28;20097;-69
2023/06/02 12:42:00;;;;;;;3.90;1.30;;;23.50;36.40;;;;;;5071758;28;20052;-69
2023/06/02 12:44:26;;;;;;;2.60;0.90;;;23.60;35.70;;;;;;5072088;28;20037;-69
2023/06/02 12:46:53;;;;;;;2.97;1.00;;;23.70;35.60;;;;;;5089172;28;20495;-69
2023/06/02 12:49:19;;;;;;;1.83;0.90;;;23.70;34.00;;;;;;5078754;28;20535;-69